sensor_id;sensor_type;location;lat;lon;timestamp;pressure;altitude;pressure_sealevel;temperature;humidity
7333;BME280;3707;43.618;25.342;2023-04-04T00:01:46;99199.72;;;8.91;100.00
7333;BME280;3707;43.618;25.342;2023-04-04T00:04:13;99193.63;;;8.85;100.00
7333;BME280;3707;43.618;25.342;2023-04-04T00:06:40;99178.19;;;8.91;100.00
7333;BME280;3707;43.618;25.342;2023-04-04T00:09:11;99169.44;;;8.75;100.00
7333;BME280;3707;43.618;25.342;2023-04-04T00:11:40;99119.19;;;8.38;100.00
7333;BME280;3707;43.618;25.342;2023-04-04T00:14:07;99177.19;;;8.74;100.00
7333;BME280;3707;43.618;25.342;2023-04-04T00:16:34;99204.84;;;8.85;100.00
7333;BME280;3707;43.618;25.342;2023-04-04T00:19:00;99180.69;;;8.82;100.00
7333;BME280;3707;43.618;25.342;2023-04-04T00:21:27;99186.75;;;8.84;100.00
7333;BME280;3707;43.618;25.342;2023-04-04T00:23:55;99181.38;;;8.60;100.00
7333;BME280;3707;43.618;25.342;2023-04-04T00:26:23;99178.00;;;8.67;100.00
7333;BME280;3707;43.618;25.342;2023-04-04T00:28:50;99176.19;;;8.58;100.00
7333;BME280;3707;43.618;25.342;2023-04-04T00:31:17;99172.72;;;8.52;100.00
7333;BME280;3707;43.618;25.342;2023-04-04T00:33:44;99151.97;;;8.45;100.00
7333;BME280;3707;43.618;25.342;2023-04-04T00:36:11;99153.66;;;8.40;100.00
7333;BME280;3707;43.618;25.342;2023-04-04T00:38:38;99149.31;;;8.33;100.00
7333;BME280;3707;43.618;25.342;2023-04-04T00:41:05;99154.47;;;8.33;100.00
7333;BME280;3707;43.618;25.342;2023-04-04T00:43:33;99160.63;;;8.48;100.00
7333;BME280;3707;43.618;25.342;2023-04-04T00:46:00;99155.09;;;8.14;100.00
7333;BME280;3707;43.618;25.342;2023-04-04T00:48:28;99162.19;;;8.32;100.00
7333;BME280;3707;43.618;25.342;2023-04-04T00:50:55;99160.47;;;8.32;100.00
7333;BME280;3707;43.618;25.342;2023-04-04T00:53:22;99155.19;;;8.25;100.00
7333;BME280;3707;43.618;25.342;2023-04-04T00:55:49;99175.13;;;8.35;100.00
7333;BME280;3707;43.618;25.342;2023-04-04T00:58:16;99177.72;;;8.33;100.00
7333;BME280;3707;43.618;25.342;2023-04-04T01:00:44;99187.19;;;8.36;100.00
7333;BME280;3707;43.618;25.342;2023-04-04T01:03:11;99164.78;;;8.30;100.00
7333;BME280;3707;43.618;25.342;2023-04-04T01:05:39;99174.31;;;8.39;100.00
7333;BME280;3707;43.618;25.342;2023-04-04T01:08:06;99182.91;;;8.39;100.00
7333;BME280;3707;43.618;25.342;2023-04-04T01:10:33;99175.88;;;8.28;100.00
7333;BME280;3707;43.618;25.342;2023-04-04T01:13:00;99182.88;;;8.33;100.00
7333;BME280;3707;43.618;25.342;2023-04-04T01:15:27;99154.22;;;8.11;100.00
7333;BME280;3707;43.618;25.342;2023-04-04T01:17:57;99174.16;;;8.25;100.00
7333;BME280;3707;43.618;25.342;2023-04-04T01:20:28;99169.94;;;8.32;100.00
7333;BME280;3707;43.618;25.342;2023-04-04T01:22:56;99159.44;;;8.17;100.00
7333;BME280;3707;43.618;25.342;2023-04-04T01:25:29;99147.31;;;8.08;100.00
7333;BME280;3707;43.618;25.342;2023-04-04T01:27:58;99167.09;;;8.06;100.00
7333;BME280;3707;43.618;25.342;2023-04-04T01:30:27;99163.78;;;8.19;100.00
7333;BME280;3707;43.618;25.342;2023-04-04T01:32:58;99159.41;;;8.14;100.00
7333;BME280;3707;43.618;25.342;2023-04-04T01:35:32;99137.84;;;8.09;100.00
7333;BME280;3707;43.618;25.342;2023-04-04T01:38:10;99162.88;;;8.16;100.00
7333;BME280;3707;43.618;25.342;2023-04-04T01:40:43;99161.16;;;8.16;100.00
7333;BME280;3707;43.618;25.342;2023-04-04T01:43:13;99155.06;;;8.08;100.00
7333;BME280;3707;43.618;25.342;2023-04-04T01:45:40;99129.94;;;7.93;100.00
7333;BME280;3707;43.618;25.342;2023-04-04T01:48:07;99129.06;;;7.90;100.00
7333;BME280;3707;43.618;25.342;2023-04-04T01:50:35;99147.84;;;7.77;100.00
7333;BME280;3707;43.618;25.342;2023-04-04T01:53:02;99140.00;;;7.68;100.00
7333;BME280;3707;43.618;25.342;2023-04-04T01:55:29;99158.91;;;7.68;100.00
7333;BME280;3707;43.618;25.342;2023-04-04T01:57:57;99150.16;;;7.54;100.00
7333;BME280;3707;43.618;25.342;2023-04-04T02:00:24;99161.03;;;7.30;100.00
7333;BME280;3707;43.618;25.342;2023-04-04T02:02:51;99165.44;;;7.37;100.00
7333;BME280;3707;43.618;25.342;2023-04-04T02:05:18;99164.38;;;7.25;100.00
7333;BME280;3707;43.618;25.342;2023-04-04T02:07:46;99155.91;;;7.33;100.00
7333;BME280;3707;43.618;25.342;2023-04-04T02:10:15;99159.94;;;7.13;100.00
7333;BME280;3707;43.618;25.342;2023-04-04T02:12:41;99148.56;;;6.97;100.00
7333;BME280;3707;43.618;25.342;2023-04-04T02:15:10;99156.53;;;7.16;100.00
7333;BME280;3707;43.618;25.342;2023-04-04T02:17:37;99150.94;;;6.84;100.00
7333;BME280;3707;43.618;25.342;2023-04-04T02:20:05;99121.75;;;6.86;100.00
7333;BME280;3707;43.618;25.342;2023-04-04T02:22:32;99125.06;;;6.78;100.00
7333;BME280;3707;43.618;25.342;2023-04-04T02:24:59;99137.25;;;6.89;100.00
7333;BME280;3707;43.618;25.342;2023-04-04T02:27:27;99145.78;;;6.85;100.00
7333;BME280;3707;43.618;25.342;2023-04-04T02:29:54;99147.66;;;6.94;100.00
7333;BME280;3707;43.618;25.342;2023-04-04T02:32:23;99145.09;;;6.97;100.00
7333;BME280;3707;43.618;25.342;2023-04-04T02:34:50;99138.94;;;6.86;100.00
7333;BME280;3707;43.618;25.342;2023-04-04T02:37:17;99119.69;;;6.61;100.00
7333;BME280;3707;43.618;25.342;2023-04-04T02:39:43;99142.84;;;6.61;100.00
7333;BME280;3707;43.618;25.342;2023-04-04T02:42:10;99122.00;;;6.44;100.00
7333;BME280;3707;43.618;25.342;2023-04-04T02:44:37;99146.16;;;6.53;100.00
7333;BME280;3707;43.618;25.342;2023-04-04T02:47:04;99142.69;;;6.49;100.00
7333;BME280;3707;43.618;25.342;2023-04-04T02:49:33;99115.78;;;6.32;100.00
7333;BME280;3707;43.618;25.342;2023-04-04T02:52:00;99166.75;;;6.53;100.00
7333;BME280;3707;43.618;25.342;2023-04-04T02:54:27;99163.25;;;6.47;100.00
7333;BME280;3707;43.618;25.342;2023-04-04T02:56:53;99148.56;;;6.42;100.00
7333;BME280;3707;43.618;25.342;2023-04-04T02:59:20;99146.88;;;7.01;100.00
7333;BME280;3707;43.618;25.342;2023-04-04T03:01:47;99158.34;;;6.63;100.00
7333;BME280;3707;43.618;25.342;2023-04-04T03:04:14;99169.34;;;6.54;100.00
7333;BME280;3707;43.618;25.342;2023-04-04T03:06:42;99166.75;;;6.53;100.00
7333;BME280;3707;43.618;25.342;2023-04-04T03:09:09;99176.03;;;6.43;100.00
7333;BME280;3707;43.618;25.342;2023-04-04T03:11:36;99186.41;;;6.47;100.00
7333;BME280;3707;43.618;25.342;2023-04-04T03:14:03;99169.59;;;6.71;100.00
7333;BME280;3707;43.618;25.342;2023-04-04T03:16:31;99178.28;;;6.23;100.00
7333;BME280;3707;43.618;25.342;2023-04-04T03:18:58;99176.75;;;6.34;100.00
7333;BME280;3707;43.618;25.342;2023-04-04T03:21:25;99167.38;;;6.39;100.00
7333;BME280;3707;43.618;25.342;2023-04-04T03:23:53;99157.69;;;6.25;100.00
7333;BME280;3707;43.618;25.342;2023-04-04T03:26:20;99168.84;;;6.25;100.00
7333;BME280;3707;43.618;25.342;2023-04-04T03:28:46;99153.22;;;6.13;100.00
7333;BME280;3707;43.618;25.342;2023-04-04T03:31:13;99143.69;;;6.59;100.00
7333;BME280;3707;43.618;25.342;2023-04-04T03:33:40;99165.47;;;6.26;100.00
7333;BME280;3707;43.618;25.342;2023-04-04T03:36:10;99171.75;;;6.43;100.00
7333;BME280;3707;43.618;25.342;2023-04-04T03:38:37;99143.56;;;6.02;100.00
7333;BME280;3707;43.618;25.342;2023-04-04T03:41:07;99145.59;;;6.19;100.00
7333;BME280;3707;43.618;25.342;2023-04-04T03:43:34;99173.97;;;6.22;100.00
7333;BME280;3707;43.618;25.342;2023-04-04T03:46:02;99168.47;;;6.04;100.00
7333;BME280;3707;43.618;25.342;2023-04-04T03:48:29;99163.75;;;6.27;100.00
7333;BME280;3707;43.618;25.342;2023-04-04T03:50:56;99151.38;;;6.06;100.00
7333;BME280;3707;43.618;25.342;2023-04-04T03:53:23;99166.00;;;6.10;100.00
7333;BME280;3707;43.618;25.342;2023-04-04T03:55:50;99159.03;;;6.03;100.00
7333;BME280;3707;43.618;25.342;2023-04-04T03:58:19;99155.72;;;6.10;100.00
7333;BME280;3707;43.618;25.342;2023-04-04T04:00:47;99151.41;;;6.08;100.00
7333;BME280;3707;43.618;25.342;2023-04-04T04:03:14;99166.84;;;6.08;100.00
7333;BME280;3707;43.618;25.342;2023-04-04T04:05:40;99174.69;;;6.15;100.00
7333;BME280;3707;43.618;25.342;2023-04-04T04:08:07;99153.09;;;6.07;100.00
7333;BME280;3707;43.618;25.342;2023-04-04T04:10:34;99169.97;;;5.91;100.00
7333;BME280;3707;43.618;25.342;2023-04-04T04:13:01;99170.75;;;5.87;100.00
7333;BME280;3707;43.618;25.342;2023-04-04T04:15:29;99160.59;;;5.95;100.00
7333;BME280;3707;43.618;25.342;2023-04-04T04:17:56;99151.78;;;5.84;100.00
7333;BME280;3707;43.618;25.342;2023-04-04T04:20:22;99162.16;;;5.87;100.00
7333;BME280;3707;43.618;25.342;2023-04-04T04:22:49;99169.22;;;5.97;100.00
7333;BME280;3707;43.618;25.342;2023-04-04T04:25:16;99166.53;;;5.91;100.00
7333;BME280;3707;43.618;25.342;2023-04-04T04:27:43;99162.75;;;5.75;100.00
7333;BME280;3707;43.618;25.342;2023-04-04T04:30:10;99165.47;;;5.81;100.00
7333;BME280;3707;43.618;25.342;2023-04-04T04:32:39;99155.41;;;5.92;100.00
7333;BME280;3707;43.618;25.342;2023-04-04T04:35:07;99143.16;;;5.82;100.00
7333;BME280;3707;43.618;25.342;2023-04-04T04:37:34;99167.22;;;5.84;100.00
7333;BME280;3707;43.618;25.342;2023-04-04T04:40:01;99158.38;;;5.70;100.00
7333;BME280;3707;43.618;25.342;2023-04-04T04:42:27;99160.31;;;5.81;100.00
7333;BME280;3707;43.618;25.342;2023-04-04T04:44:55;99173.03;;;5.74;100.00
7333;BME280;3707;43.618;25.342;2023-04-04T04:47:21;99154.94;;;5.69;100.00
7333;BME280;3707;43.618;25.342;2023-04-04T04:49:50;99181.78;;;5.83;100.00
7333;BME280;3707;43.618;25.342;2023-04-04T04:52:16;99176.63;;;5.83;100.00
7333;BME280;3707;43.618;25.342;2023-04-04T04:54:43;99170.47;;;5.74;100.00
7333;BME280;3707;43.618;25.342;2023-04-04T04:57:10;99156.16;;;5.44;100.00
7333;BME280;3707;43.618;25.342;2023-04-04T04:59:37;99164.97;;;5.57;100.00
7333;BME280;3707;43.618;25.342;2023-04-04T05:02:06;99160.97;;;5.71;100.00
7333;BME280;3707;43.618;25.342;2023-04-04T05:04:32;99161.72;;;5.67;100.00
7333;BME280;3707;43.618;25.342;2023-04-04T05:07:01;99147.94;;;5.64;100.00
7333;BME280;3707;43.618;25.342;2023-04-04T05:09:28;99161.81;;;5.70;100.00
7333;BME280;3707;43.618;25.342;2023-04-04T05:11:54;99176.22;;;5.64;100.00
7333;BME280;3707;43.618;25.342;2023-04-04T05:14:21;99147.22;;;5.69;100.00
7333;BME280;3707;43.618;25.342;2023-04-04T05:16:48;99143.88;;;5.75;100.00
7333;BME280;3707;43.618;25.342;2023-04-04T05:19:15;99161.88;;;5.75;100.00
7333;BME280;3707;43.618;25.342;2023-04-04T05:21:42;99158.53;;;5.79;100.00
7333;BME280;3707;43.618;25.342;2023-04-04T05:24:10;99157.19;;;5.96;100.00
7333;BME280;3707;43.618;25.342;2023-04-04T05:26:37;99142.09;;;5.71;100.00
7333;BME280;3707;43.618;25.342;2023-04-04T05:29:04;99159.22;;;5.69;100.00
7333;BME280;3707;43.618;25.342;2023-04-04T05:31:31;99111.78;;;5.55;100.00
7333;BME280;3707;43.618;25.342;2023-04-04T05:33:58;99149.50;;;5.54;100.00
7333;BME280;3707;43.618;25.342;2023-04-04T05:36:32;99150.47;;;5.61;100.00
7333;BME280;3707;43.618;25.342;2023-04-04T05:38:59;99133.44;;;5.67;100.00
7333;BME280;3707;43.618;25.342;2023-04-04T05:41:27;99147.94;;;5.64;100.00
7333;BME280;3707;43.618;25.342;2023-04-04T05:43:54;99153.69;;;5.50;100.00
7333;BME280;3707;43.618;25.342;2023-04-04T05:46:20;99138.16;;;5.44;100.00
7333;BME280;3707;43.618;25.342;2023-04-04T05:48:47;99164.13;;;5.58;100.00
7333;BME280;3707;43.618;25.342;2023-04-04T05:51:15;99160.91;;;5.68;100.00
7333;BME280;3707;43.618;25.342;2023-04-04T05:53:42;99174.63;;;5.69;100.00
7333;BME280;3707;43.618;25.342;2023-04-04T05:56:10;99138.00;;;5.37;100.00
7333;BME280;3707;43.618;25.342;2023-04-04T05:58:38;99156.38;;;5.57;100.00
7333;BME280;3707;43.618;25.342;2023-04-04T06:01:05;99159.25;;;5.70;100.00
7333;BME280;3707;43.618;25.342;2023-04-04T06:03:33;99167.84;;;5.72;100.00
7333;BME280;3707;43.618;25.342;2023-04-04T06:06:01;99151.53;;;5.72;100.00
7333;BME280;3707;43.618;25.342;2023-04-04T06:08:29;99178.78;;;5.62;100.00
7333;BME280;3707;43.618;25.342;2023-04-04T06:10:55;99171.63;;;5.47;100.00
7333;BME280;3707;43.618;25.342;2023-04-04T06:13:22;99158.88;;;5.52;100.00
7333;BME280;3707;43.618;25.342;2023-04-04T06:15:50;99161.41;;;5.49;100.00
7333;BME280;3707;43.618;25.342;2023-04-04T06:18:17;99162.84;;;5.36;100.00
7333;BME280;3707;43.618;25.342;2023-04-04T06:20:44;99172.63;;;5.53;100.00
7333;BME280;3707;43.618;25.342;2023-04-04T06:23:11;99175.81;;;5.42;100.00
7333;BME280;3707;43.618;25.342;2023-04-04T06:25:38;99177.56;;;5.43;100.00
7333;BME280;3707;43.618;25.342;2023-04-04T06:28:05;99191.28;;;5.44;100.00
7333;BME280;3707;43.618;25.342;2023-04-04T06:30:34;99181.88;;;5.46;100.00
7333;BME280;3707;43.618;25.342;2023-04-04T06:33:03;99213.56;;;5.45;100.00
7333;BME280;3707;43.618;25.342;2023-04-04T06:35:30;99173.66;;;5.20;100.00
7333;BME280;3707;43.618;25.342;2023-04-04T06:37:57;99206.56;;;5.38;100.00
7333;BME280;3707;43.618;25.342;2023-04-04T06:40:24;99198.31;;;5.53;100.00
7333;BME280;3707;43.618;25.342;2023-04-04T06:42:51;99210.16;;;5.46;100.00
7333;BME280;3707;43.618;25.342;2023-04-04T06:45:19;99211.53;;;5.30;100.00
7333;BME280;3707;43.618;25.342;2023-04-04T06:47:46;99192.69;;;5.30;100.00
7333;BME280;3707;43.618;25.342;2023-04-04T06:50:16;99203.72;;;5.24;100.00
7333;BME280;3707;43.618;25.342;2023-04-04T06:52:43;99197.22;;;5.41;100.00
7333;BME280;3707;43.618;25.342;2023-04-04T06:55:10;99208.50;;;5.48;100.00
7333;BME280;3707;43.618;25.342;2023-04-04T06:57:37;99203.09;;;5.36;100.00
7333;BME280;3707;43.618;25.342;2023-04-04T07:00:05;99201.25;;;5.30;100.00
7333;BME280;3707;43.618;25.342;2023-04-04T07:02:32;99203.44;;;5.12;100.00
7333;BME280;3707;43.618;25.342;2023-04-04T07:04:59;99214.00;;;5.24;100.00
7333;BME280;3707;43.618;25.342;2023-04-04T07:07:27;99207.44;;;5.38;100.00
7333;BME280;3707;43.618;25.342;2023-04-04T07:09:55;99213.03;;;5.61;100.00
7333;BME280;3707;43.618;25.342;2023-04-04T07:12:22;99218.06;;;5.55;100.00
7333;BME280;3707;43.618;25.342;2023-04-04T07:14:48;99146.16;;;4.79;100.00
7333;BME280;3707;43.618;25.342;2023-04-04T07:17:15;99234.63;;;5.27;100.00
7333;BME280;3707;43.618;25.342;2023-04-04T07:19:42;99227.91;;;5.35;100.00
7333;BME280;3707;43.618;25.342;2023-04-04T07:22:09;99212.91;;;5.15;100.00
7333;BME280;3707;43.618;25.342;2023-04-04T07:24:39;99195.09;;;5.22;100.00
7333;BME280;3707;43.618;25.342;2023-04-04T07:27:06;99225.03;;;5.20;100.00
7333;BME280;3707;43.618;25.342;2023-04-04T07:29:33;99049.41;;;4.37;100.00
7333;BME280;3707;43.618;25.342;2023-04-04T07:32:00;99229.34;;;5.62;100.00
7333;BME280;3707;43.618;25.342;2023-04-04T07:34:27;99210.56;;;5.25;100.00
7333;BME280;3707;43.618;25.342;2023-04-04T07:36:54;99228.84;;;5.37;100.00
7333;BME280;3707;43.618;25.342;2023-04-04T07:39:21;99230.47;;;5.34;100.00
7333;BME280;3707;43.618;25.342;2023-04-04T07:41:49;99237.66;;;5.11;100.00
7333;BME280;3707;43.618;25.342;2023-04-04T07:44:16;99243.56;;;5.07;100.00
7333;BME280;3707;43.618;25.342;2023-04-04T07:46:42;99225.38;;;4.98;100.00
7333;BME280;3707;43.618;25.342;2023-04-04T07:49:09;99222.44;;;4.83;100.00
7333;BME280;3707;43.618;25.342;2023-04-04T07:51:37;99226.41;;;5.06;100.00
7333;BME280;3707;43.618;25.342;2023-04-04T07:54:04;99218.50;;;5.36;100.00
7333;BME280;3707;43.618;25.342;2023-04-04T07:56:31;99221.59;;;5.20;100.00
7333;BME280;3707;43.618;25.342;2023-04-04T07:58:59;99224.28;;;5.26;100.00
7333;BME280;3707;43.618;25.342;2023-04-04T08:01:26;99234.88;;;5.02;100.00
7333;BME280;3707;43.618;25.342;2023-04-04T08:03:53;99229.53;;;5.30;100.00
7333;BME280;3707;43.618;25.342;2023-04-04T08:06:20;99204.72;;;5.32;100.00
7333;BME280;3707;43.618;25.342;2023-04-04T08:08:47;99228.19;;;5.10;100.00
7333;BME280;3707;43.618;25.342;2023-04-04T08:11:15;99236.41;;;5.31;100.00
7333;BME280;3707;43.618;25.342;2023-04-04T08:13:41;99219.13;;;5.24;100.00
7333;BME280;3707;43.618;25.342;2023-04-04T08:16:10;99190.47;;;5.06;100.00
7333;BME280;3707;43.618;25.342;2023-04-04T08:18:36;99239.47;;;5.15;100.00
7333;BME280;3707;43.618;25.342;2023-04-04T08:21:04;99204.72;;;4.93;100.00
7333;BME280;3707;43.618;25.342;2023-04-04T08:23:30;99233.50;;;5.16;100.00
7333;BME280;3707;43.618;25.342;2023-04-04T08:25:57;99229.88;;;5.45;100.00
7333;BME280;3707;43.618;25.342;2023-04-04T08:28:25;99238.19;;;5.35;100.00
7333;BME280;3707;43.618;25.342;2023-04-04T08:30:52;99233.75;;;5.27;100.00
7333;BME280;3707;43.618;25.342;2023-04-04T08:33:21;99241.56;;;5.31;100.00
7333;BME280;3707;43.618;25.342;2023-04-04T08:35:48;99213.66;;;5.09;100.00
7333;BME280;3707;43.618;25.342;2023-04-04T08:38:15;99220.72;;;5.19;100.00
7333;BME280;3707;43.618;25.342;2023-04-04T08:40:45;99223.75;;;5.40;100.00
7333;BME280;3707;43.618;25.342;2023-04-04T08:43:14;99226.31;;;5.40;100.00
7333;BME280;3707;43.618;25.342;2023-04-04T08:45:42;99226.78;;;5.23;100.00
7333;BME280;3707;43.618;25.342;2023-04-04T08:48:11;99235.13;;;5.13;100.00
7333;BME280;3707;43.618;25.342;2023-04-04T08:50:41;99236.06;;;5.16;100.00
7333;BME280;3707;43.618;25.342;2023-04-04T08:53:08;99238.81;;;5.24;100.00
7333;BME280;3707;43.618;25.342;2023-04-04T08:55:36;99246.19;;;5.10;100.00
7333;BME280;3707;43.618;25.342;2023-04-04T08:58:03;99246.28;;;5.13;100.00
7333;BME280;3707;43.618;25.342;2023-04-04T09:00:30;99197.31;;;4.71;100.00
7333;BME280;3707;43.618;25.342;2023-04-04T09:03:04;99150.72;;;4.55;100.00
7333;BME280;3707;43.618;25.342;2023-04-04T09:05:32;99238.41;;;5.06;100.00
7333;BME280;3707;43.618;25.342;2023-04-04T09:08:01;99222.34;;;5.16;100.00
7333;BME280;3707;43.618;25.342;2023-04-04T09:10:30;99221.97;;;4.99;100.00
7333;BME280;3707;43.618;25.342;2023-04-04T09:12:57;99205.25;;;5.16;100.00
7333;BME280;3707;43.618;25.342;2023-04-04T09:15:25;99227.38;;;5.11;100.00
7333;BME280;3707;43.618;25.342;2023-04-04T09:17:52;99229.75;;;5.02;100.00
7333;BME280;3707;43.618;25.342;2023-04-04T09:20:37;99217.28;;;5.19;100.00
7333;BME280;3707;43.618;25.342;2023-04-04T09:23:08;99211.25;;;5.17;100.00
7333;BME280;3707;43.618;25.342;2023-04-04T09:25:35;99231.56;;;5.08;100.00
7333;BME280;3707;43.618;25.342;2023-04-04T09:28:03;99224.03;;;5.15;100.00
7333;BME280;3707;43.618;25.342;2023-04-04T09:30:31;99231.44;;;5.02;100.00
7333;BME280;3707;43.618;25.342;2023-04-04T09:33:03;99240.84;;;5.01;100.00
7333;BME280;3707;43.618;25.342;2023-04-04T09:35:32;99234.03;;;5.03;100.00
7333;BME280;3707;43.618;25.342;2023-04-04T09:38:00;99221.88;;;4.96;100.00
7333;BME280;3707;43.618;25.342;2023-04-04T09:40:29;99217.16;;;5.14;100.00
7333;BME280;3707;43.618;25.342;2023-04-04T09:42:59;99229.06;;;5.09;100.00
7333;BME280;3707;43.618;25.342;2023-04-04T09:45:26;99226.94;;;4.91;100.00
7333;BME280;3707;43.618;25.342;2023-04-04T09:47:55;99237.28;;;4.96;100.00
7333;BME280;3707;43.618;25.342;2023-04-04T09:50:23;99231.19;;;4.91;100.00
7333;BME280;3707;43.618;25.342;2023-04-04T09:52:50;99230.44;;;4.95;100.00
7333;BME280;3707;43.618;25.342;2023-04-04T09:55:18;99221.53;;;5.17;100.00
7333;BME280;3707;43.618;25.342;2023-04-04T09:57:46;99213.13;;;5.24;100.00
7333;BME280;3707;43.618;25.342;2023-04-04T10:00:19;99212.78;;;5.09;100.00
7333;BME280;3707;43.618;25.342;2023-04-04T10:02:47;99217.78;;;5.04;100.00
7333;BME280;3707;43.618;25.342;2023-04-04T10:05:15;99225.38;;;4.98;100.00
7333;BME280;3707;43.618;25.342;2023-04-04T10:07:42;99238.31;;;5.03;100.00
7333;BME280;3707;43.618;25.342;2023-04-04T10:10:12;99241.84;;;5.08;100.00
7333;BME280;3707;43.618;25.342;2023-04-04T10:12:39;99234.78;;;4.97;100.00
7333;BME280;3707;43.618;25.342;2023-04-04T10:15:09;99232.44;;;5.08;100.00
7333;BME280;3707;43.618;25.342;2023-04-04T10:17:37;99220.16;;;4.95;100.00
7333;BME280;3707;43.618;25.342;2023-04-04T10:20:05;99206.13;;;4.81;100.00
7333;BME280;3707;43.618;25.342;2023-04-04T10:22:34;99242.94;;;5.17;100.00
7333;BME280;3707;43.618;25.342;2023-04-04T10:25:01;99222.69;;;6.13;100.00
7333;BME280;3707;43.618;25.342;2023-04-04T10:27:30;99229.47;;;5.68;100.00
7333;BME280;3707;43.618;25.342;2023-04-04T10:29:57;99242.56;;;5.38;100.00
7333;BME280;3707;43.618;25.342;2023-04-04T10:32:32;99227.03;;;5.33;100.00
7333;BME280;3707;43.618;25.342;2023-04-04T10:35:02;99245.00;;;5.33;100.00
7333;BME280;3707;43.618;25.342;2023-04-04T10:37:36;99241.09;;;5.12;100.00
7333;BME280;3707;43.618;25.342;2023-04-04T10:40:08;99225.72;;;5.13;100.00
7333;BME280;3707;43.618;25.342;2023-04-04T10:42:38;99253.00;;;5.08;100.00
7333;BME280;3707;43.618;25.342;2023-04-04T10:45:07;99247.09;;;5.12;100.00
7333;BME280;3707;43.618;25.342;2023-04-04T10:47:36;99246.41;;;5.19;100.00
7333;BME280;3707;43.618;25.342;2023-04-04T10:50:04;99238.13;;;5.32;100.00
7333;BME280;3707;43.618;25.342;2023-04-04T10:52:34;99230.72;;;5.46;100.00
7333;BME280;3707;43.618;25.342;2023-04-04T10:55:04;99241.38;;;5.24;100.00
7333;BME280;3707;43.618;25.342;2023-04-04T10:57:32;99220.66;;;5.16;100.00
7333;BME280;3707;43.618;25.342;2023-04-04T11:00:01;99238.13;;;5.32;100.00
7333;BME280;3707;43.618;25.342;2023-04-04T11:02:47;99203.66;;;5.23;100.00
7333;BME280;3707;43.618;25.342;2023-04-04T11:05:20;99233.91;;;5.34;100.00
7333;BME280;3707;43.618;25.342;2023-04-04T11:07:51;99246.81;;;5.37;100.00
7333;BME280;3707;43.618;25.342;2023-04-04T11:10:23;99239.19;;;5.40;100.00
7333;BME280;3707;43.618;25.342;2023-04-04T11:12:52;99226.91;;;5.27;100.00
7333;BME280;3707;43.618;25.342;2023-04-04T11:15:44;99238.41;;;5.44;100.00
7333;BME280;3707;43.618;25.342;2023-04-04T11:18:12;99243.50;;;5.41;100.00
7333;BME280;3707;43.618;25.342;2023-04-04T11:20:41;99221.25;;;5.43;100.00
7333;BME280;3707;43.618;25.342;2023-04-04T11:23:14;99226.63;;;5.54;100.00
7333;BME280;3707;43.618;25.342;2023-04-04T11:25:49;99228.97;;;5.43;100.00
7333;BME280;3707;43.618;25.342;2023-04-04T11:28:27;99236.59;;;5.40;100.00
7333;BME280;3707;43.618;25.342;2023-04-04T11:31:26;99229.00;;;5.45;100.00
7333;BME280;3707;43.618;25.342;2023-04-04T11:33:56;99196.34;;;5.41;100.00
7333;BME280;3707;43.618;25.342;2023-04-04T11:36:47;99213.59;;;5.46;100.00
7333;BME280;3707;43.618;25.342;2023-04-04T11:39:20;99217.09;;;5.48;100.00
7333;BME280;3707;43.618;25.342;2023-04-04T11:41:51;99220.19;;;5.34;100.00
7333;BME280;3707;43.618;25.342;2023-04-04T11:44:19;99232.34;;;5.42;100.00
7333;BME280;3707;43.618;25.342;2023-04-04T11:46:47;99230.47;;;5.35;100.00
7333;BME280;3707;43.618;25.342;2023-04-04T11:49:17;99178.31;;;4.99;100.00
7333;BME280;3707;43.618;25.342;2023-04-04T11:51:44;99231.06;;;5.22;100.00
7333;BME280;3707;43.618;25.342;2023-04-04T11:54:15;99234.88;;;5.39;100.00
7333;BME280;3707;43.618;25.342;2023-04-04T11:56:42;99213.81;;;5.56;100.00
7333;BME280;3707;43.618;25.342;2023-04-04T11:59:10;99232.81;;;5.64;100.00
7333;BME280;3707;43.618;25.342;2023-04-04T12:01:37;99228.78;;;5.36;100.00
7333;BME280;3707;43.618;25.342;2023-04-04T12:04:04;99228.91;;;5.40;100.00
7333;BME280;3707;43.618;25.342;2023-04-04T12:06:33;99221.22;;;5.42;100.00
7333;BME280;3707;43.618;25.342;2023-04-04T12:09:01;99224.72;;;5.45;100.00
7333;BME280;3707;43.618;25.342;2023-04-04T12:11:29;99225.09;;;5.64;100.00
7333;BME280;3707;43.618;25.342;2023-04-04T12:13:56;99237.88;;;5.61;100.00
7333;BME280;3707;43.618;25.342;2023-04-04T12:16:23;99218.84;;;5.51;100.00
7333;BME280;3707;43.618;25.342;2023-04-04T12:18:50;99217.72;;;5.38;100.00
7333;BME280;3707;43.618;25.342;2023-04-04T12:21:18;99215.44;;;5.54;100.00
7333;BME280;3707;43.618;25.342;2023-04-04T12:23:46;99198.44;;;5.59;100.00
7333;BME280;3707;43.618;25.342;2023-04-04T12:26:14;99221.63;;;6.02;100.00
7333;BME280;3707;43.618;25.342;2023-04-04T12:28:42;99217.06;;;5.87;100.00
7333;BME280;3707;43.618;25.342;2023-04-04T12:31:10;99226.81;;;5.63;100.00
7333;BME280;3707;43.618;25.342;2023-04-04T12:33:39;99208.78;;;5.62;100.00
7333;BME280;3707;43.618;25.342;2023-04-04T12:36:07;99222.00;;;5.80;100.00
7333;BME280;3707;43.618;25.342;2023-04-04T12:38:53;99233.63;;;6.02;100.00
7333;BME280;3707;43.618;25.342;2023-04-04T12:41:23;99234.25;;;5.90;100.00
7333;BME280;3707;43.618;25.342;2023-04-04T12:43:50;99242.59;;;5.80;100.00
7333;BME280;3707;43.618;25.342;2023-04-04T12:46:17;99248.03;;;5.92;100.00
7333;BME280;3707;43.618;25.342;2023-04-04T12:48:44;99251.47;;;5.94;100.00
7333;BME280;3707;43.618;25.342;2023-04-04T12:51:11;99230.56;;;5.79;100.00
7333;BME280;3707;43.618;25.342;2023-04-04T12:53:49;99244.78;;;6.02;100.00
7333;BME280;3707;43.618;25.342;2023-04-04T12:56:17;99260.72;;;5.86;100.00
7333;BME280;3707;43.618;25.342;2023-04-04T12:58:46;99272.00;;;5.91;100.00
7333;BME280;3707;43.618;25.342;2023-04-04T13:01:15;99266.91;;;5.94;100.00
7333;BME280;3707;43.618;25.342;2023-04-04T13:03:42;99253.53;;;5.70;100.00
7333;BME280;3707;43.618;25.342;2023-04-04T13:06:14;99256.28;;;5.79;100.00
7333;BME280;3707;43.618;25.342;2023-04-04T13:08:50;99260.94;;;5.95;100.00
7333;BME280;3707;43.618;25.342;2023-04-04T13:11:17;99246.75;;;5.73;100.00
7333;BME280;3707;43.618;25.342;2023-04-04T13:13:46;99288.88;;;6.20;100.00
7333;BME280;3707;43.618;25.342;2023-04-04T13:16:27;99288.88;;;6.20;100.00